Teasdale, UT (84773)

5:49 AM MDT on July 26, 2014 (GMT -0600)
Loa (KUTLOA2) Elev 7096 ft | 38.40 °N, 111.66 °W | Change Station

Current weather conditions updated 19 minutes ago

Clear
Clear
57.5 °F
Feels Like 57.5 °F
N
1.0
Wind Variable Wind from North
Gusts 3.0 mph

Today is forecast to be Cooler than yesterday. Showers and thunderstorms late.

Today
High -- | Low -- °F
--% Chance of Precip.
Yesterday
High -- | Low -- °F
Precip. -- in
6:23 AM 8:41 PM
Waning Crescent, 0% visible
Pressure 29.98 in
Visibility 10.0 miles
Clouds Clear
Dew Point 50 °F
Humidity 76%
Rainfall 0.00 in
Snow Depth Not available.
UV 0 out of 12
Pollen 6.10 out of 12
Air Quality Not available.
Flu Activity Not available.
METAR KBCE 261053Z AUTO 00000KT 10SM CLR 09/06 A3035 RMK AO2 SLP151 T00890061

More Conditions Fewer Conditions

Pressure 29.98 in
Visibility 10.0 miles
Clouds Clear
Dew Point 50 °F
Humidity 76%
Rainfall 0.00 in
Snow Depth Not available.
UV 0 out of 12
Pollen 6.10 out of 12
Air Quality Not available.
Flu Activity Not available.
METAR KBCE 261053Z AUTO 00000KT 10SM CLR 09/06 A3035 RMK AO2 SLP151 T00890061

More Conditions Fewer Conditions

10-Day Weather Forecast

Almanac

Astronomy

Jul. 26, 2014 Rise Set
Actual Time 6:23 AM MDT 8:41 PM MDT
Civil Twilight 5:53 AM MDT 9:10 PM MDT
Nautical Twilight 5:16 AM MDT 9:47 PM MDT
Astronomical Twilight 4:36 AM MDT 10:27 PM MDT
Moon 6:18 AM MDT 8:19 PM MDT
Length of Visible Light 15h 17m
Length of Day
14h 17m
Tomorrow will be 1m 42s shorter.
Waning Crescent, 0% of the Moon is Illuminated
Today
Waning Crescent
Jul 26
New
Aug 3
First Quarter
Aug 10
Full
Aug 17
Last Quarter

Today's Extremes

State Highs State Lows

Community

WunderPhotos

Upload Photos

1,737,538 photos uploaded!

Nearby

Snow Depth

Station Depth Elevation
Black Flat-U.M. Creek 0 in 9400 ft
Clayton Springs 0 in 10000 ft
Box Creek 1 in 9800 ft
Gooseberry R.S. 0 in 7920 ft
Merchant Valley 0 in 8750 ft

Earthquake Activity

City Distance Mag. Time & Date
No recent earthquake activity has been reported nearby.
Minimum magnitude displayed is 2.5.

Coastal Water Temperatures

Place Temperature
No Stations Reporting

Nearby Weather Stations

Station Location Temp. Dew Point Humidity Wind Precip. Elev Updated Type
Loa, Loa, UT 57.5 °F 50 °F 76% North  at  1.0 mph 0.00 in / hr 7096 ft 5:30 AM MDT Normal
Capitol Reef Field Station, Capitol Reef National Park, UT 66.0 °F 49 °F 55% NNE  at  2.0 mph 0.00 in / hr 6020 ft 5:40 AM MDT Normal
RAWS LARB HOLLOW UT, Teasdale, UT 62 °F 40 °F 44% NW  at  2 mph 0.00 in / hr 8508 ft 5:04 AM MDT MADIS
RAWS DIXIE PORTABLE #1 UT, Escalante, UT 61 °F 42 °F 50% North  at  5 mph 0.00 in / hr 8234 ft 4:38 AM MDT MADIS
HADS FISH LAKE RANGER STATION NEAR KO UT, Koosharem, UT 50 °F 45 °F 82% WNW  at  3 mph 0.00 in / hr 8879 ft 4:15 AM MDT MADIS

Show More Stations Show Fewer Stations